sensor_id;sensor_type;location;lat;lon;timestamp;temperature;humidity
67054;SHT31;53960;51.826;5.850;2023-07-20T00:01:25;18.63;84.32
67054;SHT31;53960;51.826;5.850;2023-07-20T00:03:51;18.59;84.10
67054;SHT31;53960;51.826;5.850;2023-07-20T00:06:25;18.66;83.84
67054;SHT31;53960;51.826;5.850;2023-07-20T00:08:55;18.67;83.95
67054;SHT31;53960;51.826;5.850;2023-07-20T00:11:25;18.70;83.96
67054;SHT31;53960;51.826;5.850;2023-07-20T00:13:51;18.63;84.31
67054;SHT31;53960;51.826;5.850;2023-07-20T00:16:16;18.60;84.61
67054;SHT31;53960;51.826;5.850;2023-07-20T00:18:42;18.53;85.01
67054;SHT31;53960;51.826;5.850;2023-07-20T00:21:07;18.51;85.33
67054;SHT31;53960;51.826;5.850;2023-07-20T00:23:32;18.51;85.18
67054;SHT31;53960;51.826;5.850;2023-07-20T00:25:57;18.53;84.90
67054;SHT31;53960;51.826;5.850;2023-07-20T00:28:23;18.49;84.73
67054;SHT31;53960;51.826;5.850;2023-07-20T00:30:48;18.57;84.76
67054;SHT31;53960;51.826;5.850;2023-07-20T00:33:17;18.62;85.13
67054;SHT31;53960;51.826;5.850;2023-07-20T00:35:43;18.57;84.82
67054;SHT31;53960;51.826;5.850;2023-07-20T00:38:09;18.59;84.57
67054;SHT31;53960;51.826;5.850;2023-07-20T00:40:40;18.63;83.51
67054;SHT31;53960;51.826;5.850;2023-07-20T00:43:06;18.56;83.61
67054;SHT31;53960;51.826;5.850;2023-07-20T00:45:33;18.48;83.71
67054;SHT31;53960;51.826;5.850;2023-07-20T00:47:59;18.38;83.88
67054;SHT31;53960;51.826;5.850;2023-07-20T00:50:26;18.24;83.85
67054;SHT31;53960;51.826;5.850;2023-07-20T00:52:53;18.24;83.59
67054;SHT31;53960;51.826;5.850;2023-07-20T00:55:19;18.22;83.89
67054;SHT31;53960;51.826;5.850;2023-07-20T00:57:44;18.15;84.22
67054;SHT31;53960;51.826;5.850;2023-07-20T01:00:10;18.06;83.26
67054;SHT31;53960;51.826;5.850;2023-07-20T01:02:36;17.97;83.65
67054;SHT31;53960;51.826;5.850;2023-07-20T01:05:02;18.01;83.75
67054;SHT31;53960;51.826;5.850;2023-07-20T01:07:37;18.04;83.32
67054;SHT31;53960;51.826;5.850;2023-07-20T01:12:48;18.06;82.91
67054;SHT31;53960;51.826;5.850;2023-07-20T01:15:14;18.04;82.65
67054;SHT31;53960;51.826;5.850;2023-07-20T01:17:40;17.84;82.70
67054;SHT31;53960;51.826;5.850;2023-07-20T01:20:08;17.77;83.21
67054;SHT31;53960;51.826;5.850;2023-07-20T01:28:17;17.66;83.48
67054;SHT31;53960;51.826;5.850;2023-07-20T01:33:20;17.62;83.63
67054;SHT31;53960;51.826;5.850;2023-07-20T01:35:58;17.63;83.86
67054;SHT31;53960;51.826;5.850;2023-07-20T01:38:25;17.70;83.64
67054;SHT31;53960;51.826;5.850;2023-07-20T01:40:51;17.75;83.23
67054;SHT31;53960;51.826;5.850;2023-07-20T01:43:17;17.77;83.16
67054;SHT31;53960;51.826;5.850;2023-07-20T01:45:43;17.70;83.55
67054;SHT31;53960;51.826;5.850;2023-07-20T01:48:08;17.70;83.60
67054;SHT31;53960;51.826;5.850;2023-07-20T01:50:34;17.69;83.04
67054;SHT31;53960;51.826;5.850;2023-07-20T01:53:00;17.64;83.26
67054;SHT31;53960;51.826;5.850;2023-07-20T01:55:25;17.59;83.53
67054;SHT31;53960;51.826;5.850;2023-07-20T01:57:50;17.66;83.43
67054;SHT31;53960;51.826;5.850;2023-07-20T02:00:16;17.62;83.50
67054;SHT31;53960;51.826;5.850;2023-07-20T02:02:44;17.67;83.29
67054;SHT31;53960;51.826;5.850;2023-07-20T02:05:09;17.64;83.63
67054;SHT31;53960;51.826;5.850;2023-07-20T02:07:34;17.75;83.23
67054;SHT31;53960;51.826;5.850;2023-07-20T02:10:00;17.66;83.36
67054;SHT31;53960;51.826;5.850;2023-07-20T02:12:25;17.56;83.53
67054;SHT31;53960;51.826;5.850;2023-07-20T02:14:50;17.67;83.67
67054;SHT31;53960;51.826;5.850;2023-07-20T02:17:16;17.64;83.31
67054;SHT31;53960;51.826;5.850;2023-07-20T02:19:41;17.64;83.18
67054;SHT31;53960;51.826;5.850;2023-07-20T02:22:07;17.60;83.61
67054;SHT31;53960;51.826;5.850;2023-07-20T02:24:33;17.51;83.29
67054;SHT31;53960;51.826;5.850;2023-07-20T02:26:59;17.54;83.51
67054;SHT31;53960;51.826;5.850;2023-07-20T02:29:24;17.46;83.99
67054;SHT31;53960;51.826;5.850;2023-07-20T02:31:49;17.40;83.75
67054;SHT31;53960;51.826;5.850;2023-07-20T02:34:15;17.50;83.62
67054;SHT31;53960;51.826;5.850;2023-07-20T02:36:40;17.37;83.58
67054;SHT31;53960;51.826;5.850;2023-07-20T02:39:08;17.25;83.87
67054;SHT31;53960;51.826;5.850;2023-07-20T02:41:33;17.30;83.73
67054;SHT31;53960;51.826;5.850;2023-07-20T02:43:58;17.20;84.15
67054;SHT31;53960;51.826;5.850;2023-07-20T02:46:24;17.12;84.04
67054;SHT31;53960;51.826;5.850;2023-07-20T02:48:49;17.19;84.12
67054;SHT31;53960;51.826;5.850;2023-07-20T02:51:14;17.16;84.39
67054;SHT31;53960;51.826;5.850;2023-07-20T02:53:40;17.15;84.35
67054;SHT31;53960;51.826;5.850;2023-07-20T02:56:06;17.02;84.66
67054;SHT31;53960;51.826;5.850;2023-07-20T02:58:34;17.06;84.57
67054;SHT31;53960;51.826;5.850;2023-07-20T03:01:02;16.95;84.98
67054;SHT31;53960;51.826;5.850;2023-07-20T03:03:28;16.95;84.97
67054;SHT31;53960;51.826;5.850;2023-07-20T03:05:53;17.03;84.81
67054;SHT31;53960;51.826;5.850;2023-07-20T03:08:21;17.03;84.73
67054;SHT31;53960;51.826;5.850;2023-07-20T03:10:46;17.05;84.63
67054;SHT31;53960;51.826;5.850;2023-07-20T03:13:11;17.05;84.79
67054;SHT31;53960;51.826;5.850;2023-07-20T03:15:39;16.96;84.96
67054;SHT31;53960;51.826;5.850;2023-07-20T03:18:04;16.98;84.97
67054;SHT31;53960;51.826;5.850;2023-07-20T03:20:31;16.84;85.23
67054;SHT31;53960;51.826;5.850;2023-07-20T03:22:56;16.94;85.23
67054;SHT31;53960;51.826;5.850;2023-07-20T03:25:22;16.94;85.13
67054;SHT31;53960;51.826;5.850;2023-07-20T03:27:48;16.98;85.11
67054;SHT31;53960;51.826;5.850;2023-07-20T03:30:13;16.85;85.28
67054;SHT31;53960;51.826;5.850;2023-07-20T03:32:38;16.84;85.50
67054;SHT31;53960;51.826;5.850;2023-07-20T03:35:04;16.86;85.42
67054;SHT31;53960;51.826;5.850;2023-07-20T03:37:29;16.86;85.37
67054;SHT31;53960;51.826;5.850;2023-07-20T03:39:55;16.91;85.18
67054;SHT31;53960;51.826;5.850;2023-07-20T03:42:20;16.88;85.26
67054;SHT31;53960;51.826;5.850;2023-07-20T03:44:45;16.92;85.06
67054;SHT31;53960;51.826;5.850;2023-07-20T03:47:11;16.91;85.11
67054;SHT31;53960;51.826;5.850;2023-07-20T03:49:36;16.86;85.14
67054;SHT31;53960;51.826;5.850;2023-07-20T03:52:01;16.85;85.08
67054;SHT31;53960;51.826;5.850;2023-07-20T03:54:30;16.84;84.98
67054;SHT31;53960;51.826;5.850;2023-07-20T03:56:55;16.81;85.28
67054;SHT31;53960;51.826;5.850;2023-07-20T03:59:20;16.86;85.20
67054;SHT31;53960;51.826;5.850;2023-07-20T04:01:46;16.85;85.14
67054;SHT31;53960;51.826;5.850;2023-07-20T04:04:15;16.78;85.18
67054;SHT31;53960;51.826;5.850;2023-07-20T04:06:41;16.78;85.34
67054;SHT31;53960;51.826;5.850;2023-07-20T04:09:09;16.76;85.36
67054;SHT31;53960;51.826;5.850;2023-07-20T04:11:35;16.81;85.07
67054;SHT31;53960;51.826;5.850;2023-07-20T04:14:00;16.81;85.33
67054;SHT31;53960;51.826;5.850;2023-07-20T04:16:26;16.78;85.19
67054;SHT31;53960;51.826;5.850;2023-07-20T04:18:52;16.72;85.36
67054;SHT31;53960;51.826;5.850;2023-07-20T04:21:19;16.69;85.62
67054;SHT31;53960;51.826;5.850;2023-07-20T04:23:44;16.74;85.54
67054;SHT31;53960;51.826;5.850;2023-07-20T04:26:10;16.79;85.31
67054;SHT31;53960;51.826;5.850;2023-07-20T04:28:38;16.81;85.53
67054;SHT31;53960;51.826;5.850;2023-07-20T04:31:10;16.85;85.18
67054;SHT31;53960;51.826;5.850;2023-07-20T04:33:37;16.95;84.88
67054;SHT31;53960;51.826;5.850;2023-07-20T04:36:02;16.99;84.88
67054;SHT31;53960;51.826;5.850;2023-07-20T04:38:28;16.95;84.99
67054;SHT31;53960;51.826;5.850;2023-07-20T04:40:53;16.99;84.80
67054;SHT31;53960;51.826;5.850;2023-07-20T04:43:19;16.89;85.19
67054;SHT31;53960;51.826;5.850;2023-07-20T04:45:44;16.91;85.40
67054;SHT31;53960;51.826;5.850;2023-07-20T04:48:11;16.86;85.31
67054;SHT31;53960;51.826;5.850;2023-07-20T04:50:37;16.92;85.18
67054;SHT31;53960;51.826;5.850;2023-07-20T04:53:02;17.01;85.03
67054;SHT31;53960;51.826;5.850;2023-07-20T04:55:28;17.05;84.77
67054;SHT31;53960;51.826;5.850;2023-07-20T04:57:53;17.03;84.65
67054;SHT31;53960;51.826;5.850;2023-07-20T05:00:19;17.12;84.41
67054;SHT31;53960;51.826;5.850;2023-07-20T05:02:45;17.06;84.70
67054;SHT31;53960;51.826;5.850;2023-07-20T05:05:12;16.98;84.91
67054;SHT31;53960;51.826;5.850;2023-07-20T05:07:38;16.98;85.04
67054;SHT31;53960;51.826;5.850;2023-07-20T05:10:04;16.99;84.95
67054;SHT31;53960;51.826;5.850;2023-07-20T05:12:30;17.03;84.80
67054;SHT31;53960;51.826;5.850;2023-07-20T05:14:56;17.09;84.58
67054;SHT31;53960;51.826;5.850;2023-07-20T05:17:22;17.06;84.40
67054;SHT31;53960;51.826;5.850;2023-07-20T05:19:47;17.08;84.40
67054;SHT31;53960;51.826;5.850;2023-07-20T05:22:15;17.05;84.35
67054;SHT31;53960;51.826;5.850;2023-07-20T05:24:41;17.05;84.52
67054;SHT31;53960;51.826;5.850;2023-07-20T05:27:06;17.02;84.60
67054;SHT31;53960;51.826;5.850;2023-07-20T05:29:31;16.99;84.85
67054;SHT31;53960;51.826;5.850;2023-07-20T05:31:58;16.96;84.63
67054;SHT31;53960;51.826;5.850;2023-07-20T05:34:23;16.96;84.80
67054;SHT31;53960;51.826;5.850;2023-07-20T05:36:48;16.95;84.73
67054;SHT31;53960;51.826;5.850;2023-07-20T05:39:16;17.03;84.20
67054;SHT31;53960;51.826;5.850;2023-07-20T05:41:42;16.99;84.19
67054;SHT31;53960;51.826;5.850;2023-07-20T05:44:07;17.01;84.29
67054;SHT31;53960;51.826;5.850;2023-07-20T05:46:32;16.91;84.75
67054;SHT31;53960;51.826;5.850;2023-07-20T05:48:58;16.86;84.15
67054;SHT31;53960;51.826;5.850;2023-07-20T05:51:23;16.88;84.58
67054;SHT31;53960;51.826;5.850;2023-07-20T05:53:48;17.01;84.28
67054;SHT31;53960;51.826;5.850;2023-07-20T05:56:14;17.11;82.98
67054;SHT31;53960;51.826;5.850;2023-07-20T05:58:39;17.27;82.12
67054;SHT31;53960;51.826;5.850;2023-07-20T06:01:04;17.19;82.00
67054;SHT31;53960;51.826;5.850;2023-07-20T06:03:33;17.30;81.91
67054;SHT31;53960;51.826;5.850;2023-07-20T06:06:02;17.30;82.15
67054;SHT31;53960;51.826;5.850;2023-07-20T06:08:29;17.26;81.06
67054;SHT31;53960;51.826;5.850;2023-07-20T06:10:55;17.25;81.41
67054;SHT31;53960;51.826;5.850;2023-07-20T06:13:20;17.20;81.15
67054;SHT31;53960;51.826;5.850;2023-07-20T06:15:45;17.16;81.60
67054;SHT31;53960;51.826;5.850;2023-07-20T06:18:12;17.19;81.94
67054;SHT31;53960;51.826;5.850;2023-07-20T06:20:37;17.23;81.25
67054;SHT31;53960;51.826;5.850;2023-07-20T06:23:03;17.23;81.61
67054;SHT31;53960;51.826;5.850;2023-07-20T06:25:28;17.36;80.33
67054;SHT31;53960;51.826;5.850;2023-07-20T06:27:55;17.40;79.76
67054;SHT31;53960;51.826;5.850;2023-07-20T06:30:21;17.43;79.53
67054;SHT31;53960;51.826;5.850;2023-07-20T06:32:46;17.44;79.55
67054;SHT31;53960;51.826;5.850;2023-07-20T06:35:12;17.51;79.49
67054;SHT31;53960;51.826;5.850;2023-07-20T06:37:38;17.47;79.44
67054;SHT31;53960;51.826;5.850;2023-07-20T06:40:03;17.51;78.93
67054;SHT31;53960;51.826;5.850;2023-07-20T06:42:30;17.59;78.18
67054;SHT31;53960;51.826;5.850;2023-07-20T06:44:56;17.56;77.25
67054;SHT31;53960;51.826;5.850;2023-07-20T06:47:22;17.69;77.01
67054;SHT31;53960;51.826;5.850;2023-07-20T06:49:47;17.71;77.15
67054;SHT31;53960;51.826;5.850;2023-07-20T06:52:12;17.75;77.57
67054;SHT31;53960;51.826;5.850;2023-07-20T06:54:38;17.78;75.72
67054;SHT31;53960;51.826;5.850;2023-07-20T06:57:04;17.75;76.07
67054;SHT31;53960;51.826;5.850;2023-07-20T06:59:31;17.77;76.21
67054;SHT31;53960;51.826;5.850;2023-07-20T07:01:56;17.90;75.28
67054;SHT31;53960;51.826;5.850;2023-07-20T07:04:22;17.97;76.11
67054;SHT31;53960;51.826;5.850;2023-07-20T07:06:47;18.15;75.27
67054;SHT31;53960;51.826;5.850;2023-07-20T07:09:13;18.06;72.09
67054;SHT31;53960;51.826;5.850;2023-07-20T07:11:39;18.14;72.85
67054;SHT31;53960;51.826;5.850;2023-07-20T07:14:04;18.18;73.97
67054;SHT31;53960;51.826;5.850;2023-07-20T07:16:29;18.08;74.22
67054;SHT31;53960;51.826;5.850;2023-07-20T07:18:55;18.06;74.35
67054;SHT31;53960;51.826;5.850;2023-07-20T07:21:20;18.11;72.49
67054;SHT31;53960;51.826;5.850;2023-07-20T07:23:46;18.24;72.75
67054;SHT31;53960;51.826;5.850;2023-07-20T07:26:12;18.26;72.04
67054;SHT31;53960;51.826;5.850;2023-07-20T07:28:37;18.38;72.13
67054;SHT31;53960;51.826;5.850;2023-07-20T07:31:06;18.49;71.91
67054;SHT31;53960;51.826;5.850;2023-07-20T07:33:32;18.60;71.24
67054;SHT31;53960;51.826;5.850;2023-07-20T07:35:57;18.72;70.91
67054;SHT31;53960;51.826;5.850;2023-07-20T07:38:23;18.70;71.23
67054;SHT31;53960;51.826;5.850;2023-07-20T07:40:48;18.80;71.76
67054;SHT31;53960;51.826;5.850;2023-07-20T07:43:13;18.80;70.30
67054;SHT31;53960;51.826;5.850;2023-07-20T07:45:39;18.89;71.00
67054;SHT31;53960;51.826;5.850;2023-07-20T07:48:06;18.94;71.33
67054;SHT31;53960;51.826;5.850;2023-07-20T07:50:32;18.91;70.43
67054;SHT31;53960;51.826;5.850;2023-07-20T07:52:58;19.03;70.79
67054;SHT31;53960;51.826;5.850;2023-07-20T07:55:24;19.04;70.55
67054;SHT31;53960;51.826;5.850;2023-07-20T07:57:51;19.01;70.45
67054;SHT31;53960;51.826;5.850;2023-07-20T08:00:17;19.11;71.15
67054;SHT31;53960;51.826;5.850;2023-07-20T08:02:44;19.21;70.75
67054;SHT31;53960;51.826;5.850;2023-07-20T08:05:11;19.21;70.02
67054;SHT31;53960;51.826;5.850;2023-07-20T08:07:37;19.21;69.69
67054;SHT31;53960;51.826;5.850;2023-07-20T08:10:03;19.24;70.64
67054;SHT31;53960;51.826;5.850;2023-07-20T08:12:29;19.24;70.30
67054;SHT31;53960;51.826;5.850;2023-07-20T08:14:54;19.22;68.66
67054;SHT31;53960;51.826;5.850;2023-07-20T08:17:19;19.25;68.98
67054;SHT31;53960;51.826;5.850;2023-07-20T08:19:46;19.27;68.97
67054;SHT31;53960;51.826;5.850;2023-07-20T08:22:11;19.28;68.73
67054;SHT31;53960;51.826;5.850;2023-07-20T08:24:40;19.41;68.23
67054;SHT31;53960;51.826;5.850;2023-07-20T08:27:06;19.55;67.52
67054;SHT31;53960;51.826;5.850;2023-07-20T08:29:32;19.62;68.05
67054;SHT31;53960;51.826;5.850;2023-07-20T08:31:57;19.49;67.47
67054;SHT31;53960;51.826;5.850;2023-07-20T08:34:23;19.58;67.10
67054;SHT31;53960;51.826;5.850;2023-07-20T08:36:48;19.57;67.27
67054;SHT31;53960;51.826;5.850;2023-07-20T08:39:13;19.48;67.53
67054;SHT31;53960;51.826;5.850;2023-07-20T08:41:41;19.63;68.28
67054;SHT31;53960;51.826;5.850;2023-07-20T08:44:08;19.72;66.35
67054;SHT31;53960;51.826;5.850;2023-07-20T08:46:35;19.57;66.24
67054;SHT31;53960;51.826;5.850;2023-07-20T08:49:01;19.51;66.70
67054;SHT31;53960;51.826;5.850;2023-07-20T08:51:29;19.55;67.33
67054;SHT31;53960;51.826;5.850;2023-07-20T08:53:54;19.47;67.20
67054;SHT31;53960;51.826;5.850;2023-07-20T08:56:20;19.47;67.51
67054;SHT31;53960;51.826;5.850;2023-07-20T08:58:46;19.44;67.59
67054;SHT31;53960;51.826;5.850;2023-07-20T09:01:12;19.41;67.94
67054;SHT31;53960;51.826;5.850;2023-07-20T09:03:39;19.41;68.15
67054;SHT31;53960;51.826;5.850;2023-07-20T09:06:05;19.44;68.26
67054;SHT31;53960;51.826;5.850;2023-07-20T09:08:31;19.45;66.79
67054;SHT31;53960;51.826;5.850;2023-07-20T09:10:57;19.49;66.91
67054;SHT31;53960;51.826;5.850;2023-07-20T09:13:25;19.85;66.20
67054;SHT31;53960;51.826;5.850;2023-07-20T09:15:54;20.19;67.63
67054;SHT31;53960;51.826;5.850;2023-07-20T09:18:27;20.45;67.28
67054;SHT31;53960;51.826;5.850;2023-07-20T09:20:53;20.65;65.11
67054;SHT31;53960;51.826;5.850;2023-07-20T09:23:35;20.71;64.25
67054;SHT31;53960;51.826;5.850;2023-07-20T09:26:09;20.85;63.20
67054;SHT31;53960;51.826;5.850;2023-07-20T09:28:42;20.69;63.25
67054;SHT31;53960;51.826;5.850;2023-07-20T09:31:15;20.58;64.21
67054;SHT31;53960;51.826;5.850;2023-07-20T09:33:41;20.51;64.22
67054;SHT31;53960;51.826;5.850;2023-07-20T09:36:09;20.41;63.25
67054;SHT31;53960;51.826;5.850;2023-07-20T09:38:36;20.43;64.42
67054;SHT31;53960;51.826;5.850;2023-07-20T09:41:02;20.37;64.19
67054;SHT31;53960;51.826;5.850;2023-07-20T09:43:31;20.24;63.67
67054;SHT31;53960;51.826;5.850;2023-07-20T09:45:58;20.20;64.35
67054;SHT31;53960;51.826;5.850;2023-07-20T09:48:24;20.13;64.50
67054;SHT31;53960;51.826;5.850;2023-07-20T09:50:51;20.21;63.71
67054;SHT31;53960;51.826;5.850;2023-07-20T09:53:17;20.24;62.70
67054;SHT31;53960;51.826;5.850;2023-07-20T09:55:44;20.44;63.26
67054;SHT31;53960;51.826;5.850;2023-07-20T09:58:10;20.55;63.05
67054;SHT31;53960;51.826;5.850;2023-07-20T10:00:37;20.65;62.65
67054;SHT31;53960;51.826;5.850;2023-07-20T10:03:04;20.63;61.19
67054;SHT31;53960;51.826;5.850;2023-07-20T10:05:33;20.67;62.04
67054;SHT31;53960;51.826;5.850;2023-07-20T10:08:01;20.81;63.20
67054;SHT31;53960;51.826;5.850;2023-07-20T10:10:27;20.88;62.09
67054;SHT31;53960;51.826;5.850;2023-07-20T10:12:53;21.02;62.10
67054;SHT31;53960;51.826;5.850;2023-07-20T10:15:24;21.03;62.56
67054;SHT31;53960;51.826;5.850;2023-07-20T10:18:14;21.03;61.68
67054;SHT31;53960;51.826;5.850;2023-07-20T10:20:43;21.32;62.60
67054;SHT31;53960;51.826;5.850;2023-07-20T10:23:10;21.45;61.46
67054;SHT31;53960;51.826;5.850;2023-07-20T10:25:36;21.54;60.27
67054;SHT31;53960;51.826;5.850;2023-07-20T10:28:05;21.51;60.52
67054;SHT31;53960;51.826;5.850;2023-07-20T10:30:32;21.68;60.43
67054;SHT31;53960;51.826;5.850;2023-07-20T10:32:58;21.77;61.30
67054;SHT31;53960;51.826;5.850;2023-07-20T10:35:23;21.94;60.58
67054;SHT31;53960;51.826;5.850;2023-07-20T10:37:50;21.80;58.50
67054;SHT31;53960;51.826;5.850;2023-07-20T10:40:26;21.81;59.33
67054;SHT31;53960;51.826;5.850;2023-07-20T10:43:05;21.58;59.70
67054;SHT31;53960;51.826;5.850;2023-07-20T10:45:41;21.43;59.79
67054;SHT31;53960;51.826;5.850;2023-07-20T10:48:15;21.30;61.26
67054;SHT31;53960;51.826;5.850;2023-07-20T10:50:41;21.19;62.06
67054;SHT31;53960;51.826;5.850;2023-07-20T10:53:12;21.08;61.87
67054;SHT31;53960;51.826;5.850;2023-07-20T10:55:39;20.88;63.38
67054;SHT31;53960;51.826;5.850;2023-07-20T10:58:14;20.84;62.73
67054;SHT31;53960;51.826;5.850;2023-07-20T11:00:56;20.84;62.83
67054;SHT31;53960;51.826;5.850;2023-07-20T11:03:29;20.87;64.15
67054;SHT31;53960;51.826;5.850;2023-07-20T11:05:56;20.91;64.20
67054;SHT31;53960;51.826;5.850;2023-07-20T11:08:41;20.96;64.90
67054;SHT31;53960;51.826;5.850;2023-07-20T11:11:27;20.96;65.15
67054;SHT31;53960;51.826;5.850;2023-07-20T11:14:03;21.32;64.37
67054;SHT31;53960;51.826;5.850;2023-07-20T11:16:43;21.61;62.13
67054;SHT31;53960;51.826;5.850;2023-07-20T11:19:25;21.87;62.63
67054;SHT31;53960;51.826;5.850;2023-07-20T11:21:53;22.14;62.22
67054;SHT31;53960;51.826;5.850;2023-07-20T11:24:19;22.31;64.32
67054;SHT31;53960;51.826;5.850;2023-07-20T11:26:46;22.48;64.54
67054;SHT31;53960;51.826;5.850;2023-07-20T11:29:12;22.66;62.95
67054;SHT31;53960;51.826;5.850;2023-07-20T11:31:39;22.82;61.74
67054;SHT31;53960;51.826;5.850;2023-07-20T11:34:05;22.87;60.77
67054;SHT31;53960;51.826;5.850;2023-07-20T11:36:31;22.79;58.68
67054;SHT31;53960;51.826;5.850;2023-07-20T11:38:58;22.69;58.92
67054;SHT31;53960;51.826;5.850;2023-07-20T11:41:24;22.84;59.85
67054;SHT31;53960;51.826;5.850;2023-07-20T11:43:50;23.04;61.23
67054;SHT31;53960;51.826;5.850;2023-07-20T11:46:16;23.18;57.92
67054;SHT31;53960;51.826;5.850;2023-07-20T11:48:41;23.21;57.14
67054;SHT31;53960;51.826;5.850;2023-07-20T11:51:13;23.17;56.21
67054;SHT31;53960;51.826;5.850;2023-07-20T11:53:40;23.28;56.48
67054;SHT31;53960;51.826;5.850;2023-07-20T11:56:05;23.18;55.50
67054;SHT31;53960;51.826;5.850;2023-07-20T11:58:31;23.34;58.21
67054;SHT31;53960;51.826;5.850;2023-07-20T12:00:56;23.50;58.66
67054;SHT31;53960;51.826;5.850;2023-07-20T12:03:22;23.52;58.37
67054;SHT31;53960;51.826;5.850;2023-07-20T12:05:47;23.23;57.99
67054;SHT31;53960;51.826;5.850;2023-07-20T12:08:15;23.25;58.14
67054;SHT31;53960;51.826;5.850;2023-07-20T12:10:41;23.28;58.57
67054;SHT31;53960;51.826;5.850;2023-07-20T12:13:10;23.17;56.62
67054;SHT31;53960;51.826;5.850;2023-07-20T12:15:35;23.15;59.48
67054;SHT31;53960;51.826;5.850;2023-07-20T12:18:02;23.24;60.72
67054;SHT31;53960;51.826;5.850;2023-07-20T12:20:32;23.21;63.09
67054;SHT31;53960;51.826;5.850;2023-07-20T12:23:04;23.10;60.80
67054;SHT31;53960;51.826;5.850;2023-07-20T12:28:06;22.96;61.35
67054;SHT31;53960;51.826;5.850;2023-07-20T12:30:32;22.82;61.35
67054;SHT31;53960;51.826;5.850;2023-07-20T12:32:58;22.79;60.12
67054;SHT31;53960;51.826;5.850;2023-07-20T12:35:24;22.66;58.80
67054;SHT31;53960;51.826;5.850;2023-07-20T12:37:49;22.63;60.61
67054;SHT31;53960;51.826;5.850;2023-07-20T12:40:17;22.44;60.21
67054;SHT31;53960;51.826;5.850;2023-07-20T12:42:42;22.29;61.32
67054;SHT31;53960;51.826;5.850;2023-07-20T12:45:08;22.46;58.24
67054;SHT31;53960;51.826;5.850;2023-07-20T12:47:33;22.55;58.50
67054;SHT31;53960;51.826;5.850;2023-07-20T12:49:59;22.39;58.74
67054;SHT31;53960;51.826;5.850;2023-07-20T12:52:24;22.72;59.60
67054;SHT31;53960;51.826;5.850;2023-07-20T12:54:50;22.62;60.36
67054;SHT31;53960;51.826;5.850;2023-07-20T12:57:15;22.55;59.84
67054;SHT31;53960;51.826;5.850;2023-07-20T12:59:41;22.45;58.44
67054;SHT31;53960;51.826;5.850;2023-07-20T13:02:06;22.53;59.07
67054;SHT31;53960;51.826;5.850;2023-07-20T13:04:31;22.57;59.03
67054;SHT31;53960;51.826;5.850;2023-07-20T13:06:57;22.62;58.81
67054;SHT31;53960;51.826;5.850;2023-07-20T13:09:24;22.67;59.81
67054;SHT31;53960;51.826;5.850;2023-07-20T13:11:49;22.72;59.48
67054;SHT31;53960;51.826;5.850;2023-07-20T13:14:14;22.83;57.61
67054;SHT31;53960;51.826;5.850;2023-07-20T13:16:40;22.89;58.04
67054;SHT31;53960;51.826;5.850;2023-07-20T13:19:05;22.96;58.68
67054;SHT31;53960;51.826;5.850;2023-07-20T13:21:30;22.97;58.11
67054;SHT31;53960;51.826;5.850;2023-07-20T13:23:56;23.00;57.22
67054;SHT31;53960;51.826;5.850;2023-07-20T13:26:21;23.23;55.53
67054;SHT31;53960;51.826;5.850;2023-07-20T13:28:47;23.20;55.24
67054;SHT31;53960;51.826;5.850;2023-07-20T13:31:12;23.34;55.90
67054;SHT31;53960;51.826;5.850;2023-07-20T13:33:38;23.43;53.66
67054;SHT31;53960;51.826;5.850;2023-07-20T13:36:03;23.59;52.93
67054;SHT31;53960;51.826;5.850;2023-07-20T13:38:31;23.52;53.50
67054;SHT31;53960;51.826;5.850;2023-07-20T13:40:56;23.65;52.88
67054;SHT31;53960;51.826;5.850;2023-07-20T13:43:22;23.54;53.94
67054;SHT31;53960;51.826;5.850;2023-07-20T13:45:47;23.48;55.48
67054;SHT31;53960;51.826;5.850;2023-07-20T13:48:13;23.31;54.23
67054;SHT31;53960;51.826;5.850;2023-07-20T13:50:39;23.18;55.20
67054;SHT31;53960;51.826;5.850;2023-07-20T13:53:04;23.44;55.15
67054;SHT31;53960;51.826;5.850;2023-07-20T13:55:30;23.59;53.02
67054;SHT31;53960;51.826;5.850;2023-07-20T13:57:56;23.43;53.89
67054;SHT31;53960;51.826;5.850;2023-07-20T14:00:21;23.35;52.52
67054;SHT31;53960;51.826;5.850;2023-07-20T14:02:47;23.31;53.61
67054;SHT31;53960;51.826;5.850;2023-07-20T14:05:12;23.24;55.65
67054;SHT31;53960;51.826;5.850;2023-07-20T14:07:37;23.20;55.12
67054;SHT31;53960;51.826;5.850;2023-07-20T14:10:03;23.11;53.83
67054;SHT31;53960;51.826;5.850;2023-07-20T14:12:28;23.02;54.59
67054;SHT31;53960;51.826;5.850;2023-07-20T14:14:54;23.02;56.03
67054;SHT31;53960;51.826;5.850;2023-07-20T14:17:20;23.00;57.54
67054;SHT31;53960;51.826;5.850;2023-07-20T14:19:45;23.07;57.09
67054;SHT31;53960;51.826;5.850;2023-07-20T14:22:11;23.14;54.95
67054;SHT31;53960;51.826;5.850;2023-07-20T14:24:36;23.15;54.24
67054;SHT31;53960;51.826;5.850;2023-07-20T14:27:01;23.28;54.64
67054;SHT31;53960;51.826;5.850;2023-07-20T14:29:27;23.40;55.14
67054;SHT31;53960;51.826;5.850;2023-07-20T14:31:56;23.62;54.46
67054;SHT31;53960;51.826;5.850;2023-07-20T14:34:21;23.95;54.71
67054;SHT31;53960;51.826;5.850;2023-07-20T14:36:47;23.85;53.77
67054;SHT31;53960;51.826;5.850;2023-07-20T14:39:12;23.78;54.20
67054;SHT31;53960;51.826;5.850;2023-07-20T14:41:37;23.89;55.08
67054;SHT31;53960;51.826;5.850;2023-07-20T14:44:03;23.95;54.13
67054;SHT31;53960;51.826;5.850;2023-07-20T14:46:28;24.16;54.58
67054;SHT31;53960;51.826;5.850;2023-07-20T14:48:54;24.24;54.20
67054;SHT31;53960;51.826;5.850;2023-07-20T14:51:20;24.09;52.75
67054;SHT31;53960;51.826;5.850;2023-07-20T14:53:45;24.20;52.48
67054;SHT31;53960;51.826;5.850;2023-07-20T14:56:10;24.27;54.59
67054;SHT31;53960;51.826;5.850;2023-07-20T14:58:36;23.90;53.02
67054;SHT31;53960;51.826;5.850;2023-07-20T15:01:02;23.90;51.93
67054;SHT31;53960;51.826;5.850;2023-07-20T15:03:27;23.65;52.77
67054;SHT31;53960;51.826;5.850;2023-07-20T15:05:53;23.51;53.51
67054;SHT31;53960;51.826;5.850;2023-07-20T15:08:18;23.35;53.09
67054;SHT31;53960;51.826;5.850;2023-07-20T15:10:45;23.15;53.34
67054;SHT31;53960;51.826;5.850;2023-07-20T15:13:12;22.94;52.93
67054;SHT31;53960;51.826;5.850;2023-07-20T15:15:38;22.93;53.95
67054;SHT31;53960;51.826;5.850;2023-07-20T15:18:04;22.89;54.26
67054;SHT31;53960;51.826;5.850;2023-07-20T15:20:29;22.80;53.82
67054;SHT31;53960;51.826;5.850;2023-07-20T15:22:57;22.82;54.83
67054;SHT31;53960;51.826;5.850;2023-07-20T15:25:22;22.77;53.54
67054;SHT31;53960;51.826;5.850;2023-07-20T15:27:48;22.92;54.74
67054;SHT31;53960;51.826;5.850;2023-07-20T15:30:14;23.07;53.76
67054;SHT31;53960;51.826;5.850;2023-07-20T15:32:39;23.10;53.25
67054;SHT31;53960;51.826;5.850;2023-07-20T15:35:06;23.14;54.12
67054;SHT31;53960;51.826;5.850;2023-07-20T15:37:31;23.24;53.79
67054;SHT31;53960;51.826;5.850;2023-07-20T15:39:57;23.30;52.38